sensor_id;sensor_type;location;lat;lon;timestamp;pressure;altitude;pressure_sealevel;temperature;humidity
55456;BME280;63021;52.836;6.376;2023-05-11T00:01:30;101544.81;;;13.05;75.38
55456;BME280;63021;52.836;6.376;2023-05-11T00:03:56;101536.13;;;13.03;75.56
55456;BME280;63021;52.836;6.376;2023-05-11T00:06:21;101540.44;;;13.04;75.17
55456;BME280;63021;52.836;6.376;2023-05-11T00:08:47;101539.63;;;13.04;75.36
55456;BME280;63021;52.836;6.376;2023-05-11T00:11:12;101542.28;;;13.04;75.67
55456;BME280;63021;52.836;6.376;2023-05-11T00:13:37;101539.06;;;13.00;75.44
55456;BME280;63021;52.836;6.376;2023-05-11T00:16:03;101546.81;;;13.03;75.16
55456;BME280;63021;52.836;6.376;2023-05-11T00:18:28;101544.28;;;13.02;75.77
55456;BME280;63021;52.836;6.376;2023-05-11T00:20:54;101543.56;;;12.99;75.64
55456;BME280;63021;52.836;6.376;2023-05-11T00:23:20;101544.28;;;13.02;75.23
55456;BME280;63021;52.836;6.376;2023-05-11T00:25:46;101547.22;;;12.98;75.38
55456;BME280;63021;52.836;6.376;2023-05-11T00:28:11;101538.22;;;12.99;75.50
55456;BME280;63021;52.836;6.376;2023-05-11T00:30:39;101547.06;;;13.00;75.30
55456;BME280;63021;52.836;6.376;2023-05-11T00:33:04;101540.75;;;13.01;75.59
55456;BME280;63021;52.836;6.376;2023-05-11T00:35:29;101538.06;;;13.01;75.36
55456;BME280;63021;52.836;6.376;2023-05-11T00:37:57;101537.25;;;13.00;75.27
55456;BME280;63021;52.836;6.376;2023-05-11T00:40:22;101528.50;;;12.98;75.81
55456;BME280;63021;52.836;6.376;2023-05-11T00:42:47;101527.38;;;13.01;75.54
55456;BME280;63021;52.836;6.376;2023-05-11T00:45:13;101529.38;;;12.99;75.22
55456;BME280;63021;52.836;6.376;2023-05-11T00:47:39;101534.72;;;12.99;75.73
55456;BME280;63021;52.836;6.376;2023-05-11T00:50:06;101528.50;;;12.98;76.09
55456;BME280;63021;52.836;6.376;2023-05-11T00:52:33;101527.84;;;12.96;75.80
55456;BME280;63021;52.836;6.376;2023-05-11T00:54:58;101529.53;;;12.97;75.80
55456;BME280;63021;52.836;6.376;2023-05-11T00:57:24;101528.66;;;12.97;75.94
55456;BME280;63021;52.836;6.376;2023-05-11T00:59:49;101534.16;;;12.95;75.86
55456;BME280;63021;52.836;6.376;2023-05-11T01:02:15;101529.69;;;12.96;75.80
55456;BME280;63021;52.836;6.376;2023-05-11T01:04:41;101531.47;;;12.95;76.29
55456;BME280;63021;52.836;6.376;2023-05-11T01:09:54;101537.84;;;12.94;76.03
55456;BME280;63021;52.836;6.376;2023-05-11T01:12:26;101537.13;;;12.92;76.26
55456;BME280;63021;52.836;6.376;2023-05-11T01:15:01;101526.59;;;12.91;76.58
55456;BME280;63021;52.836;6.376;2023-05-11T01:18:14;101532.06;;;12.89;76.11
55456;BME280;63021;52.836;6.376;2023-05-11T01:20:43;101534.03;;;12.87;76.15
55456;BME280;63021;52.836;6.376;2023-05-11T01:31:39;101536.03;;;12.85;76.28
55456;BME280;63021;52.836;6.376;2023-05-11T01:34:12;101537.00;;;12.84;76.02
55456;BME280;63021;52.836;6.376;2023-05-11T01:36:49;101530.69;;;12.85;76.38
55456;BME280;63021;52.836;6.376;2023-05-11T01:39:20;101527.31;;;12.83;76.45
55456;BME280;63021;52.836;6.376;2023-05-11T01:41:52;101528.31;;;12.82;76.09
55456;BME280;63021;52.836;6.376;2023-05-11T01:44:20;101527.47;;;12.81;76.47
55456;BME280;63021;52.836;6.376;2023-05-11T01:46:47;101541.50;;;12.83;76.21
55456;BME280;63021;52.836;6.376;2023-05-11T01:49:15;101539.00;;;12.82;75.73
55456;BME280;63021;52.836;6.376;2023-05-11T01:51:42;101544.31;;;12.82;76.44
55456;BME280;63021;52.836;6.376;2023-05-11T01:54:10;101543.63;;;12.80;76.14
55456;BME280;63021;52.836;6.376;2023-05-11T01:56:37;101536.47;;;12.80;76.25
55456;BME280;63021;52.836;6.376;2023-05-11T01:59:05;101546.28;;;12.80;75.96
55456;BME280;63021;52.836;6.376;2023-05-11T02:01:33;101547.28;;;12.79;76.27
55456;BME280;63021;52.836;6.376;2023-05-11T02:04:01;101546.28;;;12.80;75.96
55456;BME280;63021;52.836;6.376;2023-05-11T02:06:28;101546.28;;;12.80;76.37
55456;BME280;63021;52.836;6.376;2023-05-11T02:08:55;101549.97;;;12.79;76.30
55456;BME280;63021;52.836;6.376;2023-05-11T02:11:22;101549.09;;;12.78;76.01
55456;BME280;63021;52.836;6.376;2023-05-11T02:13:51;101551.91;;;12.77;76.11
55456;BME280;63021;52.836;6.376;2023-05-11T02:16:18;101552.22;;;12.74;76.22
55456;BME280;63021;52.836;6.376;2023-05-11T02:18:45;101554.19;;;12.72;76.00
55456;BME280;63021;52.836;6.376;2023-05-11T02:21:14;101553.34;;;12.71;76.51
55456;BME280;63021;52.836;6.376;2023-05-11T02:23:40;101550.13;;;12.68;76.41
55456;BME280;63021;52.836;6.376;2023-05-11T02:26:07;101557.56;;;12.64;76.47
55456;BME280;63021;52.836;6.376;2023-05-11T02:28:33;101550.56;;;12.63;76.24
55456;BME280;63021;52.836;6.376;2023-05-11T02:31:01;101545.22;;;12.63;76.15
55456;BME280;63021;52.836;6.376;2023-05-11T02:33:34;101554.22;;;12.62;76.28
55456;BME280;63021;52.836;6.376;2023-05-11T02:36:01;101548.19;;;12.60;76.12
55456;BME280;63021;52.836;6.376;2023-05-11T02:38:34;101551.69;;;12.60;76.44
55456;BME280;63021;52.836;6.376;2023-05-11T02:41:03;101553.53;;;12.60;76.22
55456;BME280;63021;52.836;6.376;2023-05-11T02:43:34;101550.97;;;12.58;76.36
55456;BME280;63021;52.836;6.376;2023-05-11T02:46:10;101558.00;;;12.59;76.27
55456;BME280;63021;52.836;6.376;2023-05-11T02:48:39;101561.66;;;12.58;76.27
55456;BME280;63021;52.836;6.376;2023-05-11T02:51:09;101551.97;;;12.57;76.10
55456;BME280;63021;52.836;6.376;2023-05-11T02:53:36;101556.47;;;12.57;76.50
55456;BME280;63021;52.836;6.376;2023-05-11T02:56:04;101566.31;;;12.56;76.51
55456;BME280;63021;52.836;6.376;2023-05-11T02:58:30;101563.78;;;12.55;76.12
55456;BME280;63021;52.836;6.376;2023-05-11T03:00:55;101552.25;;;12.54;75.88
55456;BME280;63021;52.836;6.376;2023-05-11T03:03:22;101553.25;;;12.53;76.44
55456;BME280;63021;52.836;6.376;2023-05-11T03:05:47;101556.88;;;12.52;76.47
55456;BME280;63021;52.836;6.376;2023-05-11T03:08:13;101553.53;;;12.50;76.20
55456;BME280;63021;52.836;6.376;2023-05-11T03:10:38;101549.16;;;12.49;76.46
55456;BME280;63021;52.836;6.376;2023-05-11T03:13:05;101551.25;;;12.45;76.53
55456;BME280;63021;52.836;6.376;2023-05-11T03:15:31;101553.09;;;12.45;76.15
55456;BME280;63021;52.836;6.376;2023-05-11T03:17:58;101556.06;;;12.42;76.29
55456;BME280;63021;52.836;6.376;2023-05-11T03:20:26;101551.00;;;12.39;76.23
55456;BME280;63021;52.836;6.376;2023-05-11T03:22:52;101554.66;;;12.38;76.86
55456;BME280;63021;52.836;6.376;2023-05-11T03:25:19;101541.44;;;12.36;76.68
55456;BME280;63021;52.836;6.376;2023-05-11T03:27:45;101540.75;;;12.34;76.72
55456;BME280;63021;52.836;6.376;2023-05-11T03:30:13;101565.03;;;12.31;76.59
55456;BME280;63021;52.836;6.376;2023-05-11T03:32:38;101545.53;;;12.30;76.89
55456;BME280;63021;52.836;6.376;2023-05-11T03:35:04;101556.50;;;12.27;77.10
55456;BME280;63021;52.836;6.376;2023-05-11T03:37:30;101559.16;;;12.27;76.88
55456;BME280;63021;52.836;6.376;2023-05-11T03:39:58;101551.97;;;12.28;77.14
55456;BME280;63021;52.836;6.376;2023-05-11T03:42:27;101551.97;;;12.28;77.43
55456;BME280;63021;52.836;6.376;2023-05-11T03:44:56;101549.75;;;12.23;76.88
55456;BME280;63021;52.836;6.376;2023-05-11T03:47:25;101556.19;;;12.21;77.37
55456;BME280;63021;52.836;6.376;2023-05-11T03:49:53;101547.63;;;12.17;77.24
55456;BME280;63021;52.836;6.376;2023-05-11T03:52:20;101545.25;;;12.14;77.36
55456;BME280;63021;52.836;6.376;2023-05-11T03:54:45;101552.53;;;12.12;77.34
55456;BME280;63021;52.836;6.376;2023-05-11T03:57:13;101570.53;;;12.10;77.34
55456;BME280;63021;52.836;6.376;2023-05-11T03:59:39;101559.13;;;12.08;77.82
55456;BME280;63021;52.836;6.376;2023-05-11T04:02:04;101565.19;;;12.10;77.57
55456;BME280;63021;52.836;6.376;2023-05-11T04:04:30;101562.66;;;12.08;77.74
55456;BME280;63021;52.836;6.376;2023-05-11T04:06:57;101548.31;;;12.09;77.67
55456;BME280;63021;52.836;6.376;2023-05-11T04:09:22;101545.66;;;12.09;77.97
55456;BME280;63021;52.836;6.376;2023-05-11T04:11:48;101551.72;;;12.11;77.47
55456;BME280;63021;52.836;6.376;2023-05-11T04:14:14;101548.19;;;12.11;78.11
55456;BME280;63021;52.836;6.376;2023-05-11T04:16:39;101552.53;;;12.12;78.01
55456;BME280;63021;52.836;6.376;2023-05-11T04:19:05;101568.56;;;12.12;77.81
55456;BME280;63021;52.836;6.376;2023-05-11T04:21:31;101548.19;;;12.11;77.81
55456;BME280;63021;52.836;6.376;2023-05-11T04:23:57;101550.84;;;12.11;77.59
55456;BME280;63021;52.836;6.376;2023-05-11T04:26:22;101575.88;;;12.10;77.59
55456;BME280;63021;52.836;6.376;2023-05-11T04:28:48;101568.97;;;12.07;77.76
55456;BME280;63021;52.836;6.376;2023-05-11T04:31:13;101564.47;;;12.08;77.55
55456;BME280;63021;52.836;6.376;2023-05-11T04:33:39;101569.94;;;12.06;77.84
55456;BME280;63021;52.836;6.376;2023-05-11T04:36:04;101568.28;;;12.05;78.07
55456;BME280;63021;52.836;6.376;2023-05-11T04:38:30;101568.00;;;12.08;77.81
55456;BME280;63021;52.836;6.376;2023-05-11T04:40:55;101565.47;;;12.07;78.10
55456;BME280;63021;52.836;6.376;2023-05-11T04:43:21;101569.81;;;12.08;78.09
55456;BME280;63021;52.836;6.376;2023-05-11T04:45:48;101565.47;;;12.07;78.00
55456;BME280;63021;52.836;6.376;2023-05-11T04:48:13;101572.63;;;12.06;78.01
55456;BME280;63021;52.836;6.376;2023-05-11T04:50:39;101578.09;;;12.05;77.78
55456;BME280;63021;52.836;6.376;2023-05-11T04:53:04;101576.41;;;12.04;78.13
55456;BME280;63021;52.836;6.376;2023-05-11T04:55:30;101571.06;;;12.04;77.89
55456;BME280;63021;52.836;6.376;2023-05-11T04:57:55;101584.56;;;12.02;78.08
55456;BME280;63021;52.836;6.376;2023-05-11T05:00:21;101580.09;;;12.03;78.12
55456;BME280;63021;52.836;6.376;2023-05-11T05:02:46;101583.44;;;12.05;77.96
55456;BME280;63021;52.836;6.376;2023-05-11T05:05:11;101584.31;;;12.05;78.42
55456;BME280;63021;52.836;6.376;2023-05-11T05:07:37;101574.47;;;12.06;78.24
55456;BME280;63021;52.836;6.376;2023-05-11T05:10:03;101585.97;;;12.06;78.16
55456;BME280;63021;52.836;6.376;2023-05-11T05:12:34;101586.81;;;12.07;78.32
55456;BME280;63021;52.836;6.376;2023-05-11T05:14:59;101584.84;;;12.09;78.29
55456;BME280;63021;52.836;6.376;2023-05-11T05:17:24;101580.50;;;12.08;78.69
55456;BME280;63021;52.836;6.376;2023-05-11T05:19:50;101586.53;;;12.10;78.52
55456;BME280;63021;52.836;6.376;2023-05-11T05:22:15;101587.38;;;12.10;78.24
55456;BME280;63021;52.836;6.376;2023-05-11T05:24:40;101595.25;;;12.12;78.43
55456;BME280;63021;52.836;6.376;2023-05-11T05:27:06;101603.25;;;12.12;78.44
55456;BME280;63021;52.836;6.376;2023-05-11T05:29:31;101590.78;;;12.12;78.12
55456;BME280;63021;52.836;6.376;2023-05-11T05:31:56;101597.22;;;12.10;78.36
55456;BME280;63021;52.836;6.376;2023-05-11T05:34:24;101613.25;;;12.10;78.62
55456;BME280;63021;52.836;6.376;2023-05-11T05:36:49;101602.41;;;12.11;78.63
55456;BME280;63021;52.836;6.376;2023-05-11T05:39:15;101605.91;;;12.12;78.77
55456;BME280;63021;52.836;6.376;2023-05-11T05:41:40;101611.13;;;12.13;78.61
55456;BME280;63021;52.836;6.376;2023-05-11T05:44:07;101606.50;;;12.16;78.73
55456;BME280;63021;52.836;6.376;2023-05-11T05:46:32;101606.38;;;12.17;78.86
55456;BME280;63021;52.836;6.376;2023-05-11T05:48:58;101612.41;;;12.19;78.64
55456;BME280;63021;52.836;6.376;2023-05-11T05:51:23;101615.94;;;12.20;78.65
55456;BME280;63021;52.836;6.376;2023-05-11T05:53:49;101626.59;;;12.20;78.33
55456;BME280;63021;52.836;6.376;2023-05-11T05:56:14;101630.09;;;12.20;78.42
55456;BME280;63021;52.836;6.376;2023-05-11T05:58:40;101631.06;;;12.19;78.48
55456;BME280;63021;52.836;6.376;2023-05-11T06:01:05;101646.41;;;12.17;78.17
55456;BME280;63021;52.836;6.376;2023-05-11T06:03:31;101636.69;;;12.16;78.64
55456;BME280;63021;52.836;6.376;2023-05-11T06:05:56;101639.50;;;12.15;78.69
55456;BME280;63021;52.836;6.376;2023-05-11T06:08:21;101641.22;;;12.16;78.81
55456;BME280;63021;52.836;6.376;2023-05-11T06:10:47;101654.56;;;12.16;78.67
55456;BME280;63021;52.836;6.376;2023-05-11T06:13:12;101644.72;;;12.16;78.44
55456;BME280;63021;52.836;6.376;2023-05-11T06:15:38;101636.69;;;12.16;78.49
55456;BME280;63021;52.836;6.376;2023-05-11T06:18:04;101650.75;;;12.18;78.69
55456;BME280;63021;52.836;6.376;2023-05-11T06:20:30;101643.59;;;12.19;78.97
55456;BME280;63021;52.836;6.376;2023-05-11T06:22:56;101646.13;;;12.20;78.91
55456;BME280;63021;52.836;6.376;2023-05-11T06:25:21;101649.47;;;12.22;78.98
55456;BME280;63021;52.836;6.376;2023-05-11T06:27:47;101657.50;;;12.22;78.98
55456;BME280;63021;52.836;6.376;2023-05-11T06:30:12;101662.56;;;12.25;78.92
55456;BME280;63021;52.836;6.376;2023-05-11T06:32:38;101663.28;;;12.27;79.21
55456;BME280;63021;52.836;6.376;2023-05-11T06:35:03;101664.97;;;12.28;79.00
55456;BME280;63021;52.836;6.376;2023-05-11T06:37:29;101657.78;;;12.29;78.91
55456;BME280;63021;52.836;6.376;2023-05-11T06:39:54;101656.81;;;12.30;78.73
55456;BME280;63021;52.836;6.376;2023-05-11T06:42:20;101664.69;;;12.32;78.98
55456;BME280;63021;52.836;6.376;2023-05-11T06:44:47;101673.53;;;12.32;78.53
55456;BME280;63021;52.836;6.376;2023-05-11T06:47:13;101685.91;;;12.33;78.84
55456;BME280;63021;52.836;6.376;2023-05-11T06:49:40;101707.13;;;12.35;78.50
55456;BME280;63021;52.836;6.376;2023-05-11T06:52:06;101685.78;;;12.35;78.76
55456;BME280;63021;52.836;6.376;2023-05-11T06:54:31;101675.91;;;12.35;78.76
55456;BME280;63021;52.836;6.376;2023-05-11T06:56:56;101682.41;;;12.33;78.22
55456;BME280;63021;52.836;6.376;2023-05-11T06:59:22;101676.19;;;12.32;78.84
55456;BME280;63021;52.836;6.376;2023-05-11T07:01:47;101671.16;;;12.29;78.68
55456;BME280;63021;52.836;6.376;2023-05-11T07:04:13;101671.44;;;12.26;78.75
55456;BME280;63021;52.836;6.376;2023-05-11T07:06:38;101679.84;;;12.21;78.52
55456;BME280;63021;52.836;6.376;2023-05-11T07:09:03;101669.19;;;12.21;78.93
55456;BME280;63021;52.836;6.376;2023-05-11T07:11:29;101668.59;;;12.18;79.00
55456;BME280;63021;52.836;6.376;2023-05-11T07:13:55;101673.09;;;12.17;79.26
55456;BME280;63021;52.836;6.376;2023-05-11T07:16:20;101679.25;;;12.18;78.83
55456;BME280;63021;52.836;6.376;2023-05-11T07:18:47;101682.06;;;12.16;79.34
55456;BME280;63021;52.836;6.376;2023-05-11T07:21:12;101687.28;;;12.18;79.40
55456;BME280;63021;52.836;6.376;2023-05-11T07:23:38;101679.25;;;12.18;79.12
55456;BME280;63021;52.836;6.376;2023-05-11T07:26:03;101667.63;;;12.19;79.24
55456;BME280;63021;52.836;6.376;2023-05-11T07:28:36;101669.41;;;12.18;79.33
55456;BME280;63021;52.836;6.376;2023-05-11T07:31:01;101671.97;;;12.20;79.20
55456;BME280;63021;52.836;6.376;2023-05-11T07:33:27;101666.66;;;12.20;79.20
55456;BME280;63021;52.836;6.376;2023-05-11T07:35:52;101670.84;;;12.22;79.36
55456;BME280;63021;52.836;6.376;2023-05-11T07:38:18;101674.50;;;12.21;79.63
55456;BME280;63021;52.836;6.376;2023-05-11T07:40:43;101673.38;;;12.24;79.60
55456;BME280;63021;52.836;6.376;2023-05-11T07:43:09;101673.94;;;12.27;79.76
55456;BME280;63021;52.836;6.376;2023-05-11T07:45:34;101696.72;;;12.32;79.82
55456;BME280;63021;52.836;6.376;2023-05-11T07:47:59;101672.56;;;12.33;79.64
55456;BME280;63021;52.836;6.376;2023-05-11T07:50:25;101664.13;;;12.38;79.68
55456;BME280;63021;52.836;6.376;2023-05-11T07:52:50;101672.72;;;12.41;79.40
55456;BME280;63021;52.836;6.376;2023-05-11T07:55:16;101670.59;;;12.45;79.78
55456;BME280;63021;52.836;6.376;2023-05-11T07:57:44;101667.78;;;12.46;79.91
55456;BME280;63021;52.836;6.376;2023-05-11T08:00:09;101676.38;;;12.50;79.42
55456;BME280;63021;52.836;6.376;2023-05-11T08:02:36;101666.53;;;12.51;79.88
55456;BME280;63021;52.836;6.376;2023-05-11T08:05:02;101684.94;;;12.54;79.68
55456;BME280;63021;52.836;6.376;2023-05-11T08:07:28;101665.97;;;12.57;79.67
55456;BME280;63021;52.836;6.376;2023-05-11T08:09:53;101660.47;;;12.58;79.89
55456;BME280;63021;52.836;6.376;2023-05-11T08:12:19;101664.69;;;12.61;79.82
55456;BME280;63021;52.836;6.376;2023-05-11T08:14:44;101665.81;;;12.58;79.71
55456;BME280;63021;52.836;6.376;2023-05-11T08:17:09;101668.09;;;12.63;80.19
55456;BME280;63021;52.836;6.376;2023-05-11T08:19:35;101667.09;;;12.64;80.06
55456;BME280;63021;52.836;6.376;2023-05-11T08:22:01;101672.03;;;12.69;79.91
55456;BME280;63021;52.836;6.376;2023-05-11T08:24:26;101668.50;;;12.68;79.98
55456;BME280;63021;52.836;6.376;2023-05-11T08:26:51;101664.72;;;12.71;80.18
55456;BME280;63021;52.836;6.376;2023-05-11T08:29:18;101653.88;;;12.72;80.06
55456;BME280;63021;52.836;6.376;2023-05-11T08:31:43;101651.94;;;12.74;80.23
55456;BME280;63021;52.836;6.376;2023-05-11T08:34:08;101669.19;;;12.80;80.29
55456;BME280;63021;52.836;6.376;2023-05-11T08:36:35;101673.41;;;12.82;80.36
55456;BME280;63021;52.836;6.376;2023-05-11T08:39:01;101664.84;;;12.89;80.60
55456;BME280;63021;52.836;6.376;2023-05-11T08:41:26;101672.28;;;12.95;80.72
55456;BME280;63021;52.836;6.376;2023-05-11T08:43:53;101671.56;;;13.03;80.89
55456;BME280;63021;52.836;6.376;2023-05-11T08:46:20;101681.56;;;13.10;80.62
55456;BME280;63021;52.836;6.376;2023-05-11T08:48:47;101679.16;;;13.17;80.46
55456;BME280;63021;52.836;6.376;2023-05-11T08:51:14;101679.44;;;13.24;80.81
55456;BME280;63021;52.836;6.376;2023-05-11T08:53:40;101678.00;;;13.29;80.85
55456;BME280;63021;52.836;6.376;2023-05-11T08:56:07;101674.91;;;13.34;80.63
55456;BME280;63021;52.836;6.376;2023-05-11T08:58:35;101674.34;;;13.40;80.48
55456;BME280;63021;52.836;6.376;2023-05-11T09:01:03;101674.75;;;13.45;80.51
55456;BME280;63021;52.836;6.376;2023-05-11T09:03:30;101665.31;;;13.51;80.79
55456;BME280;63021;52.836;6.376;2023-05-11T09:05:56;101685.97;;;13.59;80.70
55456;BME280;63021;52.836;6.376;2023-05-11T09:08:23;101690.59;;;13.66;80.77
55456;BME280;63021;52.836;6.376;2023-05-11T09:10:51;101680.00;;;13.75;81.12
55456;BME280;63021;52.836;6.376;2023-05-11T09:13:16;101686.31;;;13.83;80.93
55456;BME280;63021;52.836;6.376;2023-05-11T09:15:42;101680.50;;;13.88;80.81
55456;BME280;63021;52.836;6.376;2023-05-11T09:18:07;101685.94;;;13.96;80.64
55456;BME280;63021;52.836;6.376;2023-05-11T09:20:33;101683.53;;;14.03;80.59
55456;BME280;63021;52.836;6.376;2023-05-11T09:22:59;101684.31;;;14.13;80.81
55456;BME280;63021;52.836;6.376;2023-05-11T09:25:26;101687.91;;;14.22;80.69
55456;BME280;63021;52.836;6.376;2023-05-11T09:27:56;101682.50;;;14.32;80.04
55456;BME280;63021;52.836;6.376;2023-05-11T09:30:23;101696.41;;;14.45;79.81
55456;BME280;63021;52.836;6.376;2023-05-11T09:32:56;101686.59;;;14.54;80.08
55456;BME280;63021;52.836;6.376;2023-05-11T09:35:27;101688.38;;;14.63;79.79
55456;BME280;63021;52.836;6.376;2023-05-11T09:40:21;101687.53;;;14.81;79.09
55456;BME280;63021;52.836;6.376;2023-05-11T09:42:47;101683.22;;;14.88;79.27
55456;BME280;63021;52.836;6.376;2023-05-11T09:45:12;101686.00;;;14.96;78.71
55456;BME280;63021;52.836;6.376;2023-05-11T09:47:38;101679.00;;;15.03;78.16
55456;BME280;63021;52.836;6.376;2023-05-11T09:50:31;101687.97;;;15.12;78.02
55456;BME280;63021;52.836;6.376;2023-05-11T09:52:57;101683.97;;;15.16;77.96
55456;BME280;63021;52.836;6.376;2023-05-11T09:55:23;101685.34;;;15.20;77.43
55456;BME280;63021;52.836;6.376;2023-05-11T09:57:52;101697.44;;;15.24;77.30
55456;BME280;63021;52.836;6.376;2023-05-11T10:00:19;101697.13;;;15.28;76.61
55456;BME280;63021;52.836;6.376;2023-05-11T10:02:45;101699.16;;;15.34;77.02
55456;BME280;63021;52.836;6.376;2023-05-11T10:05:22;101691.50;;;15.39;76.70
55456;BME280;63021;52.836;6.376;2023-05-11T10:07:56;101691.84;;;15.44;76.37
55456;BME280;63021;52.836;6.376;2023-05-11T10:10:23;101688.56;;;15.50;76.81
55456;BME280;63021;52.836;6.376;2023-05-11T10:12:49;101695.47;;;15.61;76.85
55456;BME280;63021;52.836;6.376;2023-05-11T10:15:17;101690.50;;;15.74;76.84
55456;BME280;63021;52.836;6.376;2023-05-11T10:17:45;101688.09;;;15.89;77.30
55456;BME280;63021;52.836;6.376;2023-05-11T10:20:11;101695.53;;;16.04;77.21
55456;BME280;63021;52.836;6.376;2023-05-11T10:22:37;101694.41;;;16.15;76.93
55456;BME280;63021;52.836;6.376;2023-05-11T10:25:04;101694.44;;;16.23;76.35
55456;BME280;63021;52.836;6.376;2023-05-11T10:27:30;101691.78;;;16.31;76.38
55456;BME280;63021;52.836;6.376;2023-05-11T10:29:57;101694.94;;;16.35;75.93
55456;BME280;63021;52.836;6.376;2023-05-11T10:32:23;101687.75;;;16.35;75.34
55456;BME280;63021;52.836;6.376;2023-05-11T10:34:49;101694.78;;;16.36;74.80
55456;BME280;63021;52.836;6.376;2023-05-11T10:37:15;101694.78;;;16.36;74.64
55456;BME280;63021;52.836;6.376;2023-05-11T10:39:41;101684.72;;;16.38;74.10
55456;BME280;63021;52.836;6.376;2023-05-11T10:45:14;101686.44;;;16.56;73.77
55456;BME280;63021;52.836;6.376;2023-05-11T10:59:37;101685.09;;;16.60;72.51
55456;BME280;63021;52.836;6.376;2023-05-11T11:02:07;101685.75;;;16.62;72.27
55456;BME280;63021;52.836;6.376;2023-05-11T11:04:43;101683.59;;;16.66;72.39
55456;BME280;63021;52.836;6.376;2023-05-11T11:07:08;101680.22;;;16.63;72.46
55456;BME280;63021;52.836;6.376;2023-05-11T11:12:20;101686.47;;;16.72;72.69
55456;BME280;63021;52.836;6.376;2023-05-11T11:15:06;101686.63;;;16.79;72.18
55456;BME280;63021;52.836;6.376;2023-05-11T11:17:33;101684.47;;;16.83;72.08
55456;BME280;63021;52.836;6.376;2023-05-11T11:20:00;101686.50;;;16.89;71.96
55456;BME280;63021;52.836;6.376;2023-05-11T11:25:11;101682.13;;;16.96;71.64
55456;BME280;63021;52.836;6.376;2023-05-11T11:32:40;101686.81;;;17.02;70.75
55456;BME280;63021;52.836;6.376;2023-05-11T11:38:07;101688.34;;;17.05;70.42
55456;BME280;63021;52.836;6.376;2023-05-11T11:40:37;101687.50;;;17.04;70.33
55456;BME280;63021;52.836;6.376;2023-05-11T11:43:17;101682.13;;;17.04;70.33
55456;BME280;63021;52.836;6.376;2023-05-11T11:46:00;101683.31;;;17.10;70.32
55456;BME280;63021;52.836;6.376;2023-05-11T11:48:33;101680.94;;;17.15;70.27
55456;BME280;63021;52.836;6.376;2023-05-11T11:51:02;101683.44;;;17.17;70.04
55456;BME280;63021;52.836;6.376;2023-05-11T11:56:07;101682.44;;;17.18;70.31
55456;BME280;63021;52.836;6.376;2023-05-11T12:01:11;101687.16;;;17.16;69.87
55456;BME280;63021;52.836;6.376;2023-05-11T12:03:37;101684.47;;;17.16;69.99
55456;BME280;63021;52.836;6.376;2023-05-11T12:06:07;101684.31;;;17.17;69.66
55456;BME280;63021;52.836;6.376;2023-05-11T12:08:34;101679.91;;;17.16;69.92
55456;BME280;63021;52.836;6.376;2023-05-11T12:11:00;101683.28;;;17.18;69.61
55456;BME280;63021;52.836;6.376;2023-05-11T12:13:26;101679.56;;;17.19;69.37
55456;BME280;63021;52.836;6.376;2023-05-11T12:16:08;101680.75;;;17.25;68.95
55456;BME280;63021;52.836;6.376;2023-05-11T12:18:34;101672.03;;;17.23;68.40
55456;BME280;63021;52.836;6.376;2023-05-11T12:21:01;101681.75;;;17.24;68.74
55456;BME280;63021;52.836;6.376;2023-05-11T12:23:28;101680.75;;;17.25;68.33
55456;BME280;63021;52.836;6.376;2023-05-11T12:28:26;101680.44;;;17.20;67.97
55456;BME280;63021;52.836;6.376;2023-05-11T12:30:55;101678.41;;;17.13;67.46
55456;BME280;63021;52.836;6.376;2023-05-11T12:33:21;101677.22;;;17.08;67.69
55456;BME280;63021;52.836;6.376;2023-05-11T12:35:54;101677.56;;;17.05;67.88
55456;BME280;63021;52.836;6.376;2023-05-11T12:38:20;101665.47;;;17.01;67.25
55456;BME280;63021;52.836;6.376;2023-05-11T12:40:51;101669.84;;;17.02;67.18
55456;BME280;63021;52.836;6.376;2023-05-11T12:43:21;101674.06;;;17.04;67.70
55456;BME280;63021;52.836;6.376;2023-05-11T12:45:47;101674.53;;;17.08;67.71
55456;BME280;63021;52.836;6.376;2023-05-11T12:48:13;101679.44;;;17.12;67.91
55456;BME280;63021;52.836;6.376;2023-05-11T12:50:44;101678.06;;;17.17;67.72
55456;BME280;63021;52.836;6.376;2023-05-11T12:55:39;101670.66;;;17.27;67.27
55456;BME280;63021;52.836;6.376;2023-05-11T12:58:11;101673.50;;;17.34;67.90
55456;BME280;63021;52.836;6.376;2023-05-11T13:00:48;101682.56;;;17.41;67.66
55456;BME280;63021;52.836;6.376;2023-05-11T13:03:29;101669.44;;;17.46;66.81
55456;BME280;63021;52.836;6.376;2023-05-11T13:06:17;101671.63;;;17.51;65.86
55456;BME280;63021;52.836;6.376;2023-05-11T13:08:44;101665.88;;;17.54;66.77
55456;BME280;63021;52.836;6.376;2023-05-11T13:13:53;101663.50;;;17.67;66.49
55456;BME280;63021;52.836;6.376;2023-05-11T13:16:30;101660.09;;;17.73;66.27
55456;BME280;63021;52.836;6.376;2023-05-11T13:19:00;101671.34;;;17.77;65.26
55456;BME280;63021;52.836;6.376;2023-05-11T13:21:25;101671.16;;;17.78;65.71
55456;BME280;63021;52.836;6.376;2023-05-11T13:23:53;101674.19;;;17.83;65.19
55456;BME280;63021;52.836;6.376;2023-05-11T13:26:23;101669.13;;;17.89;64.82
55456;BME280;63021;52.836;6.376;2023-05-11T13:28:49;101656.34;;;17.91;64.93
55456;BME280;63021;52.836;6.376;2023-05-11T13:31:15;101659.38;;;17.88;64.46
55456;BME280;63021;52.836;6.376;2023-05-11T13:33:40;101666.63;;;17.87;63.71
55456;BME280;63021;52.836;6.376;2023-05-11T13:36:05;101661.56;;;17.84;63.32
55456;BME280;63021;52.836;6.376;2023-05-11T13:38:31;101662.91;;;17.80;63.65
55456;BME280;63021;52.836;6.376;2023-05-11T13:40:56;101656.53;;;17.81;63.90
55456;BME280;63021;52.836;6.376;2023-05-11T13:43:22;101652.81;;;17.82;64.11
55456;BME280;63021;52.836;6.376;2023-05-11T13:45:47;101648.09;;;17.84;64.37